sensor_id;sensor_type;location;lat;lon;timestamp;P1;durP1;ratioP1;P2;durP2;ratioP2
18411;SDS011;27097;51.738;19.472;2023-04-08T00:01:58;30.95;;;18.73;;
18411;SDS011;27097;51.738;19.472;2023-04-08T00:04:25;30.17;;;18.00;;
18411;SDS011;27097;51.738;19.472;2023-04-08T00:06:52;30.40;;;18.05;;
18411;SDS011;27097;51.738;19.472;2023-04-08T00:09:20;30.30;;;19.08;;
18411;SDS011;27097;51.738;19.472;2023-04-08T00:11:47;28.05;;;17.35;;
18411;SDS011;27097;51.738;19.472;2023-04-08T00:14:14;28.83;;;17.08;;
18411;SDS011;27097;51.738;19.472;2023-04-08T00:16:42;30.13;;;17.50;;
18411;SDS011;27097;51.738;19.472;2023-04-08T00:19:09;25.77;;;16.13;;
18411;SDS011;27097;51.738;19.472;2023-04-08T00:21:36;26.92;;;16.17;;
18411;SDS011;27097;51.738;19.472;2023-04-08T00:24:03;24.30;;;15.23;;
18411;SDS011;27097;51.738;19.472;2023-04-08T00:26:31;25.58;;;15.52;;
18411;SDS011;27097;51.738;19.472;2023-04-08T00:28:57;23.25;;;15.30;;
18411;SDS011;27097;51.738;19.472;2023-04-08T00:31:24;24.27;;;15.80;;
18411;SDS011;27097;51.738;19.472;2023-04-08T00:33:52;25.83;;;15.32;;
18411;SDS011;27097;51.738;19.472;2023-04-08T00:36:20;22.95;;;14.80;;
18411;SDS011;27097;51.738;19.472;2023-04-08T00:38:46;23.40;;;14.38;;
18411;SDS011;27097;51.738;19.472;2023-04-08T00:41:13;22.17;;;14.35;;
18411;SDS011;27097;51.738;19.472;2023-04-08T00:43:40;22.48;;;14.27;;
18411;SDS011;27097;51.738;19.472;2023-04-08T00:46:07;23.13;;;13.98;;
18411;SDS011;27097;51.738;19.472;2023-04-08T00:48:35;20.52;;;13.40;;
18411;SDS011;27097;51.738;19.472;2023-04-08T00:51:03;23.50;;;13.25;;
18411;SDS011;27097;51.738;19.472;2023-04-08T00:53:31;21.92;;;13.85;;
18411;SDS011;27097;51.738;19.472;2023-04-08T00:55:58;22.73;;;13.35;;
18411;SDS011;27097;51.738;19.472;2023-04-08T00:58:25;19.60;;;12.65;;
18411;SDS011;27097;51.738;19.472;2023-04-08T01:00:54;19.45;;;12.63;;
18411;SDS011;27097;51.738;19.472;2023-04-08T01:03:26;20.42;;;13.52;;
18411;SDS011;27097;51.738;19.472;2023-04-08T01:06:09;21.70;;;12.98;;
18411;SDS011;27097;51.738;19.472;2023-04-08T01:08:43;19.88;;;12.30;;
18411;SDS011;27097;51.738;19.472;2023-04-08T01:11:11;19.50;;;11.90;;
18411;SDS011;27097;51.738;19.472;2023-04-08T01:13:39;19.58;;;12.20;;
18411;SDS011;27097;51.738;19.472;2023-04-08T01:16:08;21.52;;;13.07;;
18411;SDS011;27097;51.738;19.472;2023-04-08T01:18:38;20.38;;;12.57;;
18411;SDS011;27097;51.738;19.472;2023-04-08T01:21:14;18.85;;;12.13;;
18411;SDS011;27097;51.738;19.472;2023-04-08T01:23:44;17.15;;;11.65;;
18411;SDS011;27097;51.738;19.472;2023-04-08T01:26:28;18.08;;;11.20;;
18411;SDS011;27097;51.738;19.472;2023-04-08T01:28:59;19.23;;;11.52;;
18411;SDS011;27097;51.738;19.472;2023-04-08T01:31:27;22.30;;;11.48;;
18411;SDS011;27097;51.738;19.472;2023-04-08T01:33:55;22.13;;;11.77;;
18411;SDS011;27097;51.738;19.472;2023-04-08T01:36:24;18.33;;;11.27;;
18411;SDS011;27097;51.738;19.472;2023-04-08T01:38:52;18.67;;;11.48;;
18411;SDS011;27097;51.738;19.472;2023-04-08T01:41:19;18.52;;;10.95;;
18411;SDS011;27097;51.738;19.472;2023-04-08T01:43:47;17.73;;;11.40;;
18411;SDS011;27097;51.738;19.472;2023-04-08T01:46:15;20.77;;;12.13;;
18411;SDS011;27097;51.738;19.472;2023-04-08T01:48:43;17.42;;;10.77;;
18411;SDS011;27097;51.738;19.472;2023-04-08T01:51:11;19.05;;;11.27;;
18411;SDS011;27097;51.738;19.472;2023-04-08T01:53:38;15.75;;;10.68;;
18411;SDS011;27097;51.738;19.472;2023-04-08T01:56:05;16.80;;;10.45;;
18411;SDS011;27097;51.738;19.472;2023-04-08T01:58:36;17.75;;;10.82;;
18411;SDS011;27097;51.738;19.472;2023-04-08T02:01:09;17.52;;;10.93;;
18411;SDS011;27097;51.738;19.472;2023-04-08T02:03:37;18.42;;;10.57;;
18411;SDS011;27097;51.738;19.472;2023-04-08T02:06:04;18.50;;;10.38;;
18411;SDS011;27097;51.738;19.472;2023-04-08T02:08:32;18.92;;;10.60;;
18411;SDS011;27097;51.738;19.472;2023-04-08T02:10:59;16.08;;;10.27;;
18411;SDS011;27097;51.738;19.472;2023-04-08T02:13:26;18.23;;;10.55;;
18411;SDS011;27097;51.738;19.472;2023-04-08T02:15:56;19.50;;;10.60;;
18411;SDS011;27097;51.738;19.472;2023-04-08T02:18:27;19.30;;;10.13;;
18411;SDS011;27097;51.738;19.472;2023-04-08T02:20:56;15.98;;;9.60;;
18411;SDS011;27097;51.738;19.472;2023-04-08T02:23:28;17.00;;;10.23;;
18411;SDS011;27097;51.738;19.472;2023-04-08T02:26:00;16.23;;;9.70;;
18411;SDS011;27097;51.738;19.472;2023-04-08T02:28:29;16.05;;;9.30;;
18411;SDS011;27097;51.738;19.472;2023-04-08T02:30:59;19.10;;;9.65;;
18411;SDS011;27097;51.738;19.472;2023-04-08T02:33:29;15.13;;;9.75;;
18411;SDS011;27097;51.738;19.472;2023-04-08T02:35:56;15.57;;;9.27;;
18411;SDS011;27097;51.738;19.472;2023-04-08T02:38:24;16.55;;;9.35;;
18411;SDS011;27097;51.738;19.472;2023-04-08T02:40:53;14.20;;;9.07;;
18411;SDS011;27097;51.738;19.472;2023-04-08T02:43:21;16.20;;;9.20;;
18411;SDS011;27097;51.738;19.472;2023-04-08T02:45:50;13.52;;;9.07;;
18411;SDS011;27097;51.738;19.472;2023-04-08T02:48:17;14.52;;;8.43;;
18411;SDS011;27097;51.738;19.472;2023-04-08T02:50:46;14.02;;;9.18;;
18411;SDS011;27097;51.738;19.472;2023-04-08T02:53:13;13.73;;;9.15;;
18411;SDS011;27097;51.738;19.472;2023-04-08T02:55:40;14.68;;;9.40;;
18411;SDS011;27097;51.738;19.472;2023-04-08T02:58:06;15.68;;;9.20;;
18411;SDS011;27097;51.738;19.472;2023-04-08T03:00:33;16.77;;;8.82;;
18411;SDS011;27097;51.738;19.472;2023-04-08T03:03:01;14.70;;;9.10;;
18411;SDS011;27097;51.738;19.472;2023-04-08T03:05:28;14.13;;;8.68;;
18411;SDS011;27097;51.738;19.472;2023-04-08T03:07:56;13.35;;;9.18;;
18411;SDS011;27097;51.738;19.472;2023-04-08T03:10:23;13.10;;;8.60;;
18411;SDS011;27097;51.738;19.472;2023-04-08T03:12:50;14.40;;;8.82;;
18411;SDS011;27097;51.738;19.472;2023-04-08T03:15:17;13.75;;;8.43;;
18411;SDS011;27097;51.738;19.472;2023-04-08T03:17:44;14.10;;;8.43;;
18411;SDS011;27097;51.738;19.472;2023-04-08T03:20:11;13.70;;;8.70;;
18411;SDS011;27097;51.738;19.472;2023-04-08T03:22:38;13.98;;;8.50;;
18411;SDS011;27097;51.738;19.472;2023-04-08T03:25:07;13.38;;;8.52;;
18411;SDS011;27097;51.738;19.472;2023-04-08T03:27:34;14.68;;;8.27;;
18411;SDS011;27097;51.738;19.472;2023-04-08T03:30:01;13.40;;;8.73;;
18411;SDS011;27097;51.738;19.472;2023-04-08T03:32:28;12.70;;;8.23;;
18411;SDS011;27097;51.738;19.472;2023-04-08T03:34:55;13.93;;;7.78;;
18411;SDS011;27097;51.738;19.472;2023-04-08T03:37:22;11.77;;;7.75;;
18411;SDS011;27097;51.738;19.472;2023-04-08T03:39:48;13.30;;;8.48;;
18411;SDS011;27097;51.738;19.472;2023-04-08T03:42:17;12.60;;;7.85;;
18411;SDS011;27097;51.738;19.472;2023-04-08T03:44:43;12.70;;;7.90;;
18411;SDS011;27097;51.738;19.472;2023-04-08T03:47:10;14.88;;;8.32;;
18411;SDS011;27097;51.738;19.472;2023-04-08T03:49:37;11.48;;;7.50;;
18411;SDS011;27097;51.738;19.472;2023-04-08T03:52:04;14.85;;;8.20;;
18411;SDS011;27097;51.738;19.472;2023-04-08T03:54:31;12.55;;;7.30;;
18411;SDS011;27097;51.738;19.472;2023-04-08T03:56:58;12.35;;;7.60;;
18411;SDS011;27097;51.738;19.472;2023-04-08T03:59:26;11.95;;;7.95;;
18411;SDS011;27097;51.738;19.472;2023-04-08T04:01:53;13.02;;;7.88;;
18411;SDS011;27097;51.738;19.472;2023-04-08T04:04:20;12.82;;;8.48;;
18411;SDS011;27097;51.738;19.472;2023-04-08T04:06:47;12.50;;;7.60;;
18411;SDS011;27097;51.738;19.472;2023-04-08T04:09:14;11.80;;;7.88;;
18411;SDS011;27097;51.738;19.472;2023-04-08T04:11:41;12.73;;;7.95;;
18411;SDS011;27097;51.738;19.472;2023-04-08T04:14:08;11.52;;;7.60;;
18411;SDS011;27097;51.738;19.472;2023-04-08T04:16:36;11.35;;;7.40;;
18411;SDS011;27097;51.738;19.472;2023-04-08T04:19:03;13.00;;;7.95;;
18411;SDS011;27097;51.738;19.472;2023-04-08T04:21:30;12.18;;;8.13;;
18411;SDS011;27097;51.738;19.472;2023-04-08T04:23:57;10.73;;;7.93;;
18411;SDS011;27097;51.738;19.472;2023-04-08T04:26:24;13.98;;;8.00;;
18411;SDS011;27097;51.738;19.472;2023-04-08T04:28:51;10.65;;;7.78;;
18411;SDS011;27097;51.738;19.472;2023-04-08T04:31:18;11.73;;;7.68;;
18411;SDS011;27097;51.738;19.472;2023-04-08T04:33:47;14.00;;;7.70;;
18411;SDS011;27097;51.738;19.472;2023-04-08T04:36:14;11.15;;;7.13;;
18411;SDS011;27097;51.738;19.472;2023-04-08T04:38:41;11.30;;;7.55;;
18411;SDS011;27097;51.738;19.472;2023-04-08T04:41:08;12.23;;;7.88;;
18411;SDS011;27097;51.738;19.472;2023-04-08T04:43:35;11.68;;;7.55;;
18411;SDS011;27097;51.738;19.472;2023-04-08T04:46:01;11.13;;;7.57;;
18411;SDS011;27097;51.738;19.472;2023-04-08T04:48:31;15.43;;;7.28;;
18411;SDS011;27097;51.738;19.472;2023-04-08T04:50:59;10.50;;;7.43;;
18411;SDS011;27097;51.738;19.472;2023-04-08T04:53:27;11.90;;;7.57;;
18411;SDS011;27097;51.738;19.472;2023-04-08T04:55:54;13.30;;;7.53;;
18411;SDS011;27097;51.738;19.472;2023-04-08T04:58:21;13.93;;;7.20;;
18411;SDS011;27097;51.738;19.472;2023-04-08T05:00:48;10.15;;;7.43;;
18411;SDS011;27097;51.738;19.472;2023-04-08T05:03:14;12.75;;;7.13;;
18411;SDS011;27097;51.738;19.472;2023-04-08T05:05:41;11.57;;;7.45;;
18411;SDS011;27097;51.738;19.472;2023-04-08T05:08:09;10.43;;;6.93;;
18411;SDS011;27097;51.738;19.472;2023-04-08T05:10:38;11.25;;;7.18;;
18411;SDS011;27097;51.738;19.472;2023-04-08T05:13:06;12.02;;;7.00;;
18411;SDS011;27097;51.738;19.472;2023-04-08T05:15:33;11.02;;;7.63;;
18411;SDS011;27097;51.738;19.472;2023-04-08T05:18:00;9.90;;;7.10;;
18411;SDS011;27097;51.738;19.472;2023-04-08T05:20:27;10.40;;;7.05;;
18411;SDS011;27097;51.738;19.472;2023-04-08T05:22:54;12.65;;;7.32;;
18411;SDS011;27097;51.738;19.472;2023-04-08T05:25:22;12.20;;;7.30;;
18411;SDS011;27097;51.738;19.472;2023-04-08T05:27:49;10.13;;;6.93;;
18411;SDS011;27097;51.738;19.472;2023-04-08T05:30:17;13.20;;;7.22;;
18411;SDS011;27097;51.738;19.472;2023-04-08T05:32:44;9.85;;;6.97;;
18411;SDS011;27097;51.738;19.472;2023-04-08T05:35:11;11.55;;;7.03;;
18411;SDS011;27097;51.738;19.472;2023-04-08T05:37:38;10.30;;;7.15;;
18411;SDS011;27097;51.738;19.472;2023-04-08T05:40:05;10.40;;;6.93;;
18411;SDS011;27097;51.738;19.472;2023-04-08T05:42:34;9.63;;;7.00;;
18411;SDS011;27097;51.738;19.472;2023-04-08T05:45:01;11.23;;;7.68;;
18411;SDS011;27097;51.738;19.472;2023-04-08T05:47:28;10.15;;;6.93;;
18411;SDS011;27097;51.738;19.472;2023-04-08T05:49:55;11.48;;;6.50;;
18411;SDS011;27097;51.738;19.472;2023-04-08T05:52:22;10.50;;;7.10;;
18411;SDS011;27097;51.738;19.472;2023-04-08T05:54:49;10.60;;;7.35;;
18411;SDS011;27097;51.738;19.472;2023-04-08T05:57:16;10.18;;;7.13;;
18411;SDS011;27097;51.738;19.472;2023-04-08T05:59:44;9.95;;;6.20;;
18411;SDS011;27097;51.738;19.472;2023-04-08T06:02:11;9.52;;;6.78;;
18411;SDS011;27097;51.738;19.472;2023-04-08T06:04:38;10.40;;;6.75;;
18411;SDS011;27097;51.738;19.472;2023-04-08T06:07:06;10.45;;;7.22;;
18411;SDS011;27097;51.738;19.472;2023-04-08T06:09:33;10.65;;;6.80;;
18411;SDS011;27097;51.738;19.472;2023-04-08T06:12:01;10.90;;;6.82;;
18411;SDS011;27097;51.738;19.472;2023-04-08T06:14:28;16.33;;;6.55;;
18411;SDS011;27097;51.738;19.472;2023-04-08T06:16:57;11.07;;;7.03;;
18411;SDS011;27097;51.738;19.472;2023-04-08T06:19:24;10.20;;;6.82;;
18411;SDS011;27097;51.738;19.472;2023-04-08T06:21:51;15.02;;;6.82;;
18411;SDS011;27097;51.738;19.472;2023-04-08T06:24:22;11.82;;;6.75;;
18411;SDS011;27097;51.738;19.472;2023-04-08T06:26:50;13.85;;;6.18;;
18411;SDS011;27097;51.738;19.472;2023-04-08T06:29:17;11.63;;;7.57;;
18411;SDS011;27097;51.738;19.472;2023-04-08T06:31:44;16.23;;;7.07;;
18411;SDS011;27097;51.738;19.472;2023-04-08T06:34:12;13.95;;;7.53;;
18411;SDS011;27097;51.738;19.472;2023-04-08T06:36:39;17.55;;;7.22;;
18411;SDS011;27097;51.738;19.472;2023-04-08T06:39:06;18.33;;;7.47;;
18411;SDS011;27097;51.738;19.472;2023-04-08T06:41:33;19.17;;;7.57;;
18411;SDS011;27097;51.738;19.472;2023-04-08T06:44:00;25.98;;;8.23;;
18411;SDS011;27097;51.738;19.472;2023-04-08T06:46:27;14.45;;;6.80;;
18411;SDS011;27097;51.738;19.472;2023-04-08T06:48:54;17.90;;;7.90;;
18411;SDS011;27097;51.738;19.472;2023-04-08T06:51:22;16.15;;;7.43;;
18411;SDS011;27097;51.738;19.472;2023-04-08T06:53:49;19.30;;;7.68;;
18411;SDS011;27097;51.738;19.472;2023-04-08T06:56:16;17.95;;;7.35;;
18411;SDS011;27097;51.738;19.472;2023-04-08T06:58:47;21.67;;;7.88;;
18411;SDS011;27097;51.738;19.472;2023-04-08T07:01:14;23.45;;;7.30;;
18411;SDS011;27097;51.738;19.472;2023-04-08T07:03:41;25.75;;;7.75;;
18411;SDS011;27097;51.738;19.472;2023-04-08T07:06:08;24.58;;;8.00;;
18411;SDS011;27097;51.738;19.472;2023-04-08T07:08:37;15.50;;;7.97;;
18411;SDS011;27097;51.738;19.472;2023-04-08T07:11:04;28.50;;;9.35;;
18411;SDS011;27097;51.738;19.472;2023-04-08T07:13:30;21.98;;;8.32;;
18411;SDS011;27097;51.738;19.472;2023-04-08T07:15:57;22.73;;;8.80;;
18411;SDS011;27097;51.738;19.472;2023-04-08T07:18:26;20.90;;;9.43;;
18411;SDS011;27097;51.738;19.472;2023-04-08T07:20:53;22.60;;;8.73;;
18411;SDS011;27097;51.738;19.472;2023-04-08T07:23:20;14.35;;;8.52;;
18411;SDS011;27097;51.738;19.472;2023-04-08T07:25:49;19.08;;;10.25;;
18411;SDS011;27097;51.738;19.472;2023-04-08T07:28:16;20.83;;;10.02;;
18411;SDS011;27097;51.738;19.472;2023-04-08T07:30:43;20.73;;;9.77;;
18411;SDS011;27097;51.738;19.472;2023-04-08T07:33:12;18.23;;;9.27;;
18411;SDS011;27097;51.738;19.472;2023-04-08T07:35:40;13.55;;;8.35;;
18411;SDS011;27097;51.738;19.472;2023-04-08T07:38:07;14.65;;;8.75;;
18411;SDS011;27097;51.738;19.472;2023-04-08T07:40:35;13.30;;;8.32;;
18411;SDS011;27097;51.738;19.472;2023-04-08T07:43:04;13.93;;;8.55;;
18411;SDS011;27097;51.738;19.472;2023-04-08T07:45:35;15.48;;;8.73;;
18411;SDS011;27097;51.738;19.472;2023-04-08T07:48:02;13.15;;;8.57;;
18411;SDS011;27097;51.738;19.472;2023-04-08T07:50:29;14.68;;;8.98;;
18411;SDS011;27097;51.738;19.472;2023-04-08T07:52:56;15.65;;;9.10;;
18411;SDS011;27097;51.738;19.472;2023-04-08T07:55:32;16.17;;;9.20;;
18411;SDS011;27097;51.738;19.472;2023-04-08T07:58:09;17.65;;;9.30;;
18411;SDS011;27097;51.738;19.472;2023-04-08T08:00:36;14.88;;;8.00;;
18411;SDS011;27097;51.738;19.472;2023-04-08T08:03:04;17.67;;;9.73;;
18411;SDS011;27097;51.738;19.472;2023-04-08T08:05:31;16.30;;;9.65;;
18411;SDS011;27097;51.738;19.472;2023-04-08T08:08:06;20.77;;;9.88;;
18411;SDS011;27097;51.738;19.472;2023-04-08T08:10:35;15.77;;;9.52;;
18411;SDS011;27097;51.738;19.472;2023-04-08T08:13:13;13.88;;;9.70;;
18411;SDS011;27097;51.738;19.472;2023-04-08T08:15:47;20.80;;;10.05;;
18411;SDS011;27097;51.738;19.472;2023-04-08T08:18:18;17.23;;;9.57;;
18411;SDS011;27097;51.738;19.472;2023-04-08T08:20:45;16.33;;;8.73;;
18411;SDS011;27097;51.738;19.472;2023-04-08T08:23:13;15.77;;;9.05;;
18411;SDS011;27097;51.738;19.472;2023-04-08T08:25:40;16.92;;;9.48;;
18411;SDS011;27097;51.738;19.472;2023-04-08T08:28:07;16.75;;;8.95;;
18411;SDS011;27097;51.738;19.472;2023-04-08T08:30:37;18.20;;;9.57;;
18411;SDS011;27097;51.738;19.472;2023-04-08T08:33:04;19.58;;;9.77;;
18411;SDS011;27097;51.738;19.472;2023-04-08T08:35:32;13.50;;;9.50;;
18411;SDS011;27097;51.738;19.472;2023-04-08T08:37:59;15.45;;;9.82;;
18411;SDS011;27097;51.738;19.472;2023-04-08T08:40:27;15.70;;;9.02;;
18411;SDS011;27097;51.738;19.472;2023-04-08T08:43:21;14.68;;;9.43;;
18411;SDS011;27097;51.738;19.472;2023-04-08T08:45:52;16.15;;;9.75;;
18411;SDS011;27097;51.738;19.472;2023-04-08T08:48:19;15.40;;;9.77;;
18411;SDS011;27097;51.738;19.472;2023-04-08T08:50:49;14.80;;;8.80;;
18411;SDS011;27097;51.738;19.472;2023-04-08T08:53:16;15.55;;;8.63;;
18411;SDS011;27097;51.738;19.472;2023-04-08T08:55:44;15.57;;;9.30;;
18411;SDS011;27097;51.738;19.472;2023-04-08T08:58:11;19.08;;;9.77;;
18411;SDS011;27097;51.738;19.472;2023-04-08T09:00:39;17.23;;;9.23;;
18411;SDS011;27097;51.738;19.472;2023-04-08T09:03:17;17.80;;;8.52;;
18411;SDS011;27097;51.738;19.472;2023-04-08T09:05:48;13.90;;;8.40;;
18411;SDS011;27097;51.738;19.472;2023-04-08T09:08:29;13.75;;;8.23;;
18411;SDS011;27097;51.738;19.472;2023-04-08T09:13:40;13.25;;;8.88;;
18411;SDS011;27097;51.738;19.472;2023-04-08T09:16:08;14.13;;;9.13;;
18411;SDS011;27097;51.738;19.472;2023-04-08T09:18:38;14.38;;;8.25;;
18411;SDS011;27097;51.738;19.472;2023-04-08T09:21:08;16.48;;;8.60;;
18411;SDS011;27097;51.738;19.472;2023-04-08T09:23:42;18.73;;;8.85;;
18411;SDS011;27097;51.738;19.472;2023-04-08T09:26:13;16.33;;;8.80;;
18411;SDS011;27097;51.738;19.472;2023-04-08T09:28:42;16.33;;;9.02;;
18411;SDS011;27097;51.738;19.472;2023-04-08T09:31:45;17.25;;;8.75;;
18411;SDS011;27097;51.738;19.472;2023-04-08T09:34:22;15.95;;;9.77;;
18411;SDS011;27097;51.738;19.472;2023-04-08T09:37:03;19.58;;;9.07;;
18411;SDS011;27097;51.738;19.472;2023-04-08T09:42:54;19.33;;;9.90;;
18411;SDS011;27097;51.738;19.472;2023-04-08T09:45:41;18.98;;;9.48;;
18411;SDS011;27097;51.738;19.472;2023-04-08T09:48:15;17.05;;;8.93;;
18411;SDS011;27097;51.738;19.472;2023-04-08T09:56:19;21.67;;;9.20;;
18411;SDS011;27097;51.738;19.472;2023-04-08T09:58:53;19.25;;;9.18;;
18411;SDS011;27097;51.738;19.472;2023-04-08T10:01:27;18.23;;;8.95;;
18411;SDS011;27097;51.738;19.472;2023-04-08T10:04:00;22.15;;;9.57;;
18411;SDS011;27097;51.738;19.472;2023-04-08T10:06:33;15.35;;;9.45;;
18411;SDS011;27097;51.738;19.472;2023-04-08T10:09:02;24.67;;;8.98;;
18411;SDS011;27097;51.738;19.472;2023-04-08T10:11:29;16.35;;;9.50;;
18411;SDS011;27097;51.738;19.472;2023-04-08T10:13:58;14.55;;;9.07;;
18411;SDS011;27097;51.738;19.472;2023-04-08T10:16:26;19.98;;;9.20;;
18411;SDS011;27097;51.738;19.472;2023-04-08T10:18:54;19.73;;;8.10;;
18411;SDS011;27097;51.738;19.472;2023-04-08T10:21:34;15.07;;;9.18;;
18411;SDS011;27097;51.738;19.472;2023-04-08T10:24:06;17.58;;;8.18;;
18411;SDS011;27097;51.738;19.472;2023-04-08T10:26:35;13.23;;;8.43;;
18411;SDS011;27097;51.738;19.472;2023-04-08T10:31:56;15.18;;;8.45;;
18411;SDS011;27097;51.738;19.472;2023-04-08T10:34:24;13.68;;;8.70;;
18411;SDS011;27097;51.738;19.472;2023-04-08T10:36:52;14.25;;;8.20;;
18411;SDS011;27097;51.738;19.472;2023-04-08T10:39:23;15.45;;;8.48;;
18411;SDS011;27097;51.738;19.472;2023-04-08T10:41:51;14.60;;;8.35;;
18411;SDS011;27097;51.738;19.472;2023-04-08T10:44:18;12.18;;;8.20;;
18411;SDS011;27097;51.738;19.472;2023-04-08T10:46:46;15.07;;;8.93;;
18411;SDS011;27097;51.738;19.472;2023-04-08T10:49:14;13.55;;;8.00;;
18411;SDS011;27097;51.738;19.472;2023-04-08T10:51:41;13.68;;;8.60;;
18411;SDS011;27097;51.738;19.472;2023-04-08T10:54:09;13.50;;;8.43;;
18411;SDS011;27097;51.738;19.472;2023-04-08T10:56:43;12.85;;;8.23;;
18411;SDS011;27097;51.738;19.472;2023-04-08T10:59:12;10.88;;;7.93;;
18411;SDS011;27097;51.738;19.472;2023-04-08T11:01:41;13.68;;;8.48;;
18411;SDS011;27097;51.738;19.472;2023-04-08T11:04:13;12.38;;;8.10;;
18411;SDS011;27097;51.738;19.472;2023-04-08T11:06:41;13.00;;;8.05;;
18411;SDS011;27097;51.738;19.472;2023-04-08T11:09:09;11.60;;;8.32;;
18411;SDS011;27097;51.738;19.472;2023-04-08T11:11:36;10.07;;;7.65;;
18411;SDS011;27097;51.738;19.472;2023-04-08T11:14:04;12.82;;;8.13;;
18411;SDS011;27097;51.738;19.472;2023-04-08T11:16:32;14.48;;;7.70;;
18411;SDS011;27097;51.738;19.472;2023-04-08T11:19:00;11.63;;;8.10;;
18411;SDS011;27097;51.738;19.472;2023-04-08T11:21:29;13.77;;;8.30;;
18411;SDS011;27097;51.738;19.472;2023-04-08T11:23:56;11.25;;;8.07;;
18411;SDS011;27097;51.738;19.472;2023-04-08T11:26:23;13.02;;;8.10;;
18411;SDS011;27097;51.738;19.472;2023-04-08T11:28:51;10.63;;;7.50;;
18411;SDS011;27097;51.738;19.472;2023-04-08T11:31:20;15.88;;;8.32;;
18411;SDS011;27097;51.738;19.472;2023-04-08T11:33:48;10.60;;;8.02;;
18411;SDS011;27097;51.738;19.472;2023-04-08T11:36:17;13.85;;;7.97;;
18411;SDS011;27097;51.738;19.472;2023-04-08T11:38:46;10.38;;;7.63;;
18411;SDS011;27097;51.738;19.472;2023-04-08T11:41:14;10.57;;;7.20;;
18411;SDS011;27097;51.738;19.472;2023-04-08T11:43:53;12.02;;;7.53;;
18411;SDS011;27097;51.738;19.472;2023-04-08T11:46:22;10.60;;;7.90;;
18411;SDS011;27097;51.738;19.472;2023-04-08T11:48:59;9.90;;;7.65;;
18411;SDS011;27097;51.738;19.472;2023-04-08T11:51:28;9.95;;;7.20;;
18411;SDS011;27097;51.738;19.472;2023-04-08T11:53:55;9.63;;;7.53;;
18411;SDS011;27097;51.738;19.472;2023-04-08T11:56:22;9.38;;;7.05;;
18411;SDS011;27097;51.738;19.472;2023-04-08T11:58:49;11.00;;;7.28;;
18411;SDS011;27097;51.738;19.472;2023-04-08T12:01:17;9.20;;;7.13;;
18411;SDS011;27097;51.738;19.472;2023-04-08T12:03:58;9.20;;;7.03;;
18411;SDS011;27097;51.738;19.472;2023-04-08T12:06:27;11.10;;;7.72;;
18411;SDS011;27097;51.738;19.472;2023-04-08T12:08:55;10.80;;;7.05;;
18411;SDS011;27097;51.738;19.472;2023-04-08T12:11:22;11.57;;;7.63;;
18411;SDS011;27097;51.738;19.472;2023-04-08T12:13:50;10.18;;;7.20;;
18411;SDS011;27097;51.738;19.472;2023-04-08T12:16:17;11.50;;;7.63;;
18411;SDS011;27097;51.738;19.472;2023-04-08T12:18:45;9.55;;;7.20;;
18411;SDS011;27097;51.738;19.472;2023-04-08T12:21:13;9.35;;;7.25;;
18411;SDS011;27097;51.738;19.472;2023-04-08T12:23:40;10.40;;;7.90;;
18411;SDS011;27097;51.738;19.472;2023-04-08T12:26:07;9.43;;;6.75;;
18411;SDS011;27097;51.738;19.472;2023-04-08T12:28:34;10.45;;;7.13;;
18411;SDS011;27097;51.738;19.472;2023-04-08T12:31:01;9.57;;;7.22;;
18411;SDS011;27097;51.738;19.472;2023-04-08T12:33:28;8.80;;;6.78;;
18411;SDS011;27097;51.738;19.472;2023-04-08T12:35:55;9.20;;;7.40;;
18411;SDS011;27097;51.738;19.472;2023-04-08T12:38:25;9.93;;;7.40;;
18411;SDS011;27097;51.738;19.472;2023-04-08T12:40:52;10.00;;;7.35;;
18411;SDS011;27097;51.738;19.472;2023-04-08T12:43:20;10.73;;;7.43;;
18411;SDS011;27097;51.738;19.472;2023-04-08T12:45:48;12.55;;;7.13;;
18411;SDS011;27097;51.738;19.472;2023-04-08T12:48:15;9.55;;;7.55;;
18411;SDS011;27097;51.738;19.472;2023-04-08T12:50:42;11.30;;;8.00;;
18411;SDS011;27097;51.738;19.472;2023-04-08T12:53:09;9.63;;;7.35;;
18411;SDS011;27097;51.738;19.472;2023-04-08T12:55:37;9.88;;;7.53;;
18411;SDS011;27097;51.738;19.472;2023-04-08T12:58:04;9.43;;;7.45;;
18411;SDS011;27097;51.738;19.472;2023-04-08T13:00:31;10.77;;;7.28;;
18411;SDS011;27097;51.738;19.472;2023-04-08T13:02:58;9.35;;;7.22;;
18411;SDS011;27097;51.738;19.472;2023-04-08T13:05:25;10.02;;;7.38;;
18411;SDS011;27097;51.738;19.472;2023-04-08T13:07:52;12.00;;;7.38;;
18411;SDS011;27097;51.738;19.472;2023-04-08T13:10:18;9.13;;;6.75;;
18411;SDS011;27097;51.738;19.472;2023-04-08T13:12:47;9.75;;;7.30;;
18411;SDS011;27097;51.738;19.472;2023-04-08T13:15:14;9.43;;;6.80;;
18411;SDS011;27097;51.738;19.472;2023-04-08T13:17:41;10.25;;;7.68;;
18411;SDS011;27097;51.738;19.472;2023-04-08T13:20:08;9.35;;;7.13;;
18411;SDS011;27097;51.738;19.472;2023-04-08T13:22:35;9.15;;;7.15;;
18411;SDS011;27097;51.738;19.472;2023-04-08T13:25:02;7.97;;;6.70;;
18411;SDS011;27097;51.738;19.472;2023-04-08T13:27:30;10.18;;;7.20;;
18411;SDS011;27097;51.738;19.472;2023-04-08T13:29:59;8.30;;;6.65;;
18411;SDS011;27097;51.738;19.472;2023-04-08T13:32:26;8.90;;;6.95;;
18411;SDS011;27097;51.738;19.472;2023-04-08T13:34:52;9.90;;;7.00;;
18411;SDS011;27097;51.738;19.472;2023-04-08T13:37:19;8.93;;;7.05;;
18411;SDS011;27097;51.738;19.472;2023-04-08T13:39:46;9.25;;;6.72;;
18411;SDS011;27097;51.738;19.472;2023-04-08T13:42:13;9.23;;;7.18;;
18411;SDS011;27097;51.738;19.472;2023-04-08T13:44:40;8.30;;;6.50;;
18411;SDS011;27097;51.738;19.472;2023-04-08T13:47:08;8.63;;;6.57;;
18411;SDS011;27097;51.738;19.472;2023-04-08T13:49:35;10.52;;;6.75;;
18411;SDS011;27097;51.738;19.472;2023-04-08T13:52:02;9.93;;;7.25;;
18411;SDS011;27097;51.738;19.472;2023-04-08T13:54:29;8.50;;;6.85;;
18411;SDS011;27097;51.738;19.472;2023-04-08T13:56:56;10.02;;;6.93;;
18411;SDS011;27097;51.738;19.472;2023-04-08T13:59:23;8.55;;;6.50;;
18411;SDS011;27097;51.738;19.472;2023-04-08T14:01:49;8.98;;;7.13;;
18411;SDS011;27097;51.738;19.472;2023-04-08T14:04:19;9.43;;;7.22;;
18411;SDS011;27097;51.738;19.472;2023-04-08T14:06:47;9.75;;;6.75;;
18411;SDS011;27097;51.738;19.472;2023-04-08T14:09:22;8.52;;;6.82;;
18411;SDS011;27097;51.738;19.472;2023-04-08T14:11:52;9.38;;;7.22;;
18411;SDS011;27097;51.738;19.472;2023-04-08T14:14:23;9.30;;;6.75;;
18411;SDS011;27097;51.738;19.472;2023-04-08T14:16:50;9.18;;;6.90;;
18411;SDS011;27097;51.738;19.472;2023-04-08T14:19:17;8.73;;;6.72;;
18411;SDS011;27097;51.738;19.472;2023-04-08T14:21:45;8.20;;;6.72;;
18411;SDS011;27097;51.738;19.472;2023-04-08T14:24:16;9.57;;;7.03;;
18411;SDS011;27097;51.738;19.472;2023-04-08T14:26:43;9.70;;;7.10;;
18411;SDS011;27097;51.738;19.472;2023-04-08T14:29:10;9.18;;;6.85;;
18411;SDS011;27097;51.738;19.472;2023-04-08T14:31:37;9.10;;;7.05;;
18411;SDS011;27097;51.738;19.472;2023-04-08T14:34:04;8.98;;;7.18;;
18411;SDS011;27097;51.738;19.472;2023-04-08T14:36:31;9.48;;;6.93;;
18411;SDS011;27097;51.738;19.472;2023-04-08T14:38:59;10.25;;;7.47;;
18411;SDS011;27097;51.738;19.472;2023-04-08T14:41:26;10.88;;;7.80;;
18411;SDS011;27097;51.738;19.472;2023-04-08T14:43:53;9.18;;;6.97;;